createdAt,value
2022-08-10T00:03:57.566Z,66.5
2022-08-10T00:09:02.082Z,66.8
2022-08-10T00:14:05.643Z,66.8
2022-08-10T00:19:10.195Z,66.9
2022-08-10T00:24:14.704Z,67.2
2022-08-10T00:29:18.272Z,67.4
2022-08-10T00:34:22.786Z,67.5
2022-08-10T00:39:26.463Z,67.6
2022-08-10T00:44:30.868Z,67.7
2022-08-10T00:49:35.411Z,67.9
2022-08-10T00:54:38.946Z,67.9
2022-08-10T00:59:59.456Z,67.8
2022-08-10T01:04:59.865Z,68.1
2022-08-10T01:09:55.712Z,68.4
2022-08-10T01:14:56.139Z,68.2
2022-08-10T01:20:00.658Z,68.5
2022-08-10T01:25:04.216Z,69
2022-08-10T01:30:08.755Z,69.3
2022-08-10T01:35:13.270Z,69.5
2022-08-10T01:40:17.818Z,69.3
2022-08-10T01:45:21.365Z,69.8
2022-08-10T01:50:25.902Z,69.8
2022-08-10T01:55:30.414Z,69.5
2022-08-10T02:00:33.935Z,69.6
2022-08-10T02:05:38.478Z,69.9
2022-08-10T02:10:43.048Z,69.9
2022-08-10T02:16:02.042Z,69.9
2022-08-10T02:20:51.082Z,69.8
2022-08-10T02:25:55.637Z,69.8
2022-08-10T02:30:59.199Z,69.6
2022-08-10T02:36:03.697Z,70.1
2022-08-10T02:45:15.316Z,70.2
2022-08-10T02:46:12.774Z,70.3
2022-08-10T02:51:16.314Z,70.3
2022-08-10T02:56:20.860Z,69.8
2022-08-10T03:01:25.485Z,70
2022-08-10T03:06:28.968Z,70.5
2022-08-10T03:12:35.426Z,70.7
2022-08-10T03:16:38.021Z,70.5
2022-08-10T03:21:41.569Z,70.3
2022-08-10T03:26:46.116Z,70.7
2022-08-10T03:31:50.636Z,70.8
2022-08-10T03:36:54.212Z,70.6
2022-08-10T03:41:58.723Z,70.2
2022-08-10T03:47:03.259Z,70.2
2022-08-10T03:52:07.777Z,70.3
2022-08-10T03:57:11.327Z,70.5
2022-08-10T04:02:46.489Z,70.5
2022-08-10T04:07:20.403Z,71
2022-08-10T04:12:23.962Z,71
2022-08-10T04:18:03.325Z,71.2
2022-08-10T04:22:33.020Z,71.2
2022-08-10T04:27:36.554Z,70.8
2022-08-10T04:32:41.210Z,70.2
2022-08-10T04:37:47.064Z,70
2022-08-10T04:42:49.181Z,69.1
2022-08-10T04:48:00.238Z,68.3
2022-08-10T04:52:57.329Z,68
2022-08-10T04:58:01.793Z,68.1
2022-08-10T05:03:06.317Z,68.9
2022-08-10T05:08:09.898Z,69.3
2022-08-10T05:13:14.421Z,69.3
2022-08-10T05:18:18.952Z,69.3
2022-08-10T05:23:22.500Z,69.5
2022-08-10T05:28:30.170Z,69.4
2022-08-10T05:33:31.558Z,68.9
2022-08-10T05:38:36.117Z,68.5
2022-08-10T05:43:39.667Z,66
2022-08-10T05:48:59.098Z,64.9
2022-08-10T05:54:01.747Z,65
2022-08-10T05:58:52.268Z,65.3
2022-08-10T06:03:56.832Z,63.7
2022-08-10T06:09:01.381Z,63.1
2022-08-10T06:14:13.224Z,62.4
2022-08-10T06:19:09.406Z,61.8
2022-08-10T06:24:13.963Z,61.6
2022-08-10T06:29:17.488Z,61.5
2022-08-10T06:34:22.009Z,59.9
2022-08-10T06:39:35.355Z,60.1
2022-08-10T06:44:31.093Z,58.5
2022-08-10T06:49:34.643Z,57.9
2022-08-10T06:54:39.208Z,57.9
2022-08-10T06:59:43.705Z,56.8
2022-08-10T07:04:47.254Z,54.4
2022-08-10T07:09:51.800Z,55.7
2022-08-10T07:14:56.348Z,55.5
2022-08-10T07:19:59.897Z,55.5
2022-08-10T07:25:07.104Z,55
2022-08-10T07:30:09.059Z,52.8
2022-08-10T07:35:12.572Z,53.4
2022-08-10T07:40:17.138Z,52.8
2022-08-10T07:45:21.578Z,52.4
2022-08-10T07:50:26.143Z,52.2
2022-08-10T07:56:04.729Z,51
2022-08-10T08:00:34.208Z,50.1
2022-08-10T08:05:58.735Z,49.6
2022-08-10T08:10:42.310Z,49.5
2022-08-10T08:16:21.552Z,49.3
2022-08-10T08:20:51.370Z,48.1
2022-08-10T08:25:54.966Z,47.3
2022-08-10T08:30:59.452Z,47.1
2022-08-10T08:36:04.003Z,47
2022-08-10T08:41:07.544Z,46.9
2022-08-10T08:46:12.061Z,44.9
2022-08-10T08:52:05.952Z,44.9
2022-08-10T08:56:21.149Z,45
2022-08-10T09:01:24.787Z,43.9
2022-08-10T09:06:28.272Z,44.4
2022-08-10T09:11:32.813Z,43.8
2022-08-10T09:16:37.381Z,43.1
2022-08-10T09:21:55.081Z,42
2022-08-10T09:26:45.421Z,41
2022-08-10T09:32:54.913Z,41
2022-08-10T09:36:54.534Z,40.4
2022-08-10T09:41:58.155Z,39.2
2022-08-10T09:47:02.641Z,40.1
2022-08-10T09:52:07.166Z,40.5
2022-08-10T10:02:15.254Z,40.1
2022-08-10T10:07:19.883Z,40
2022-08-10T10:12:23.369Z,39.3
2022-08-10T10:17:27.997Z,39.6
2022-08-10T10:22:32.438Z,40.6
2022-08-10T10:27:36.126Z,38.9
2022-08-10T10:32:40.496Z,38.7
2022-08-10T10:38:02.762Z,38.2
2022-08-10T10:42:49.595Z,37.3
2022-08-10T10:47:53.147Z,38
2022-08-10T10:52:57.721Z,38.6
2022-08-10T10:58:02.491Z,38.5
2022-08-10T11:03:05.743Z,37.6
2022-08-10T11:08:14.455Z,37.2
2022-08-10T11:14:26.462Z,38.3
2022-08-10T11:18:18.383Z,37.3
2022-08-10T11:23:22.908Z,38.3
2022-08-10T11:28:27.473Z,37.9
2022-08-10T11:33:33.601Z,36.6
2022-08-10T11:38:52.019Z,36.3
2022-08-10T11:43:40.126Z,37.2
2022-08-10T11:48:54.903Z,36.8
2022-08-10T11:53:48.217Z,37.7
2022-08-10T11:58:52.772Z,36.7
2022-08-10T12:03:57.307Z,36.9
2022-08-10T12:10:09.525Z,38
2022-08-10T12:14:20.743Z,37.7
2022-08-10T12:19:09.927Z,36.5
2022-08-10T12:24:13.485Z,34.5
2022-08-10T12:29:20.520Z,36.1
2022-08-10T12:34:22.550Z,35.5
2022-08-10T12:39:26.148Z,35
2022-08-10T12:44:42.178Z,37.2
2022-08-10T12:49:35.198Z,36.7
2022-08-10T12:54:39.698Z,34.3
2022-08-10T12:59:43.784Z,34.5
2022-08-10T13:04:47.836Z,33.8
2022-08-10T13:09:55.878Z,33.7
2022-08-10T13:14:55.925Z,36
2022-08-10T13:20:08.107Z,34.9
2022-08-10T13:25:04.033Z,35.8
2022-08-10T13:30:10.253Z,32.9
2022-08-10T13:35:13.109Z,34
2022-08-10T13:40:16.824Z,34.6
2022-08-10T13:45:21.202Z,36.3
2022-08-10T13:50:34.574Z,34.9
2022-08-10T13:55:53.335Z,35.2
2022-08-10T14:00:38.297Z,34.1
2022-08-10T14:05:38.373Z,35.8
2022-08-10T14:11:10.347Z,34.5
2022-08-10T14:15:46.465Z,34.1
2022-08-10T14:20:50.998Z,34.7
2022-08-10T14:25:54.549Z,33.3
2022-08-10T14:30:59.079Z,34.5
2022-08-10T14:36:23.228Z,35.5
2022-08-10T14:41:08.192Z,36.4
2022-08-10T14:46:11.730Z,34.4
2022-08-10T14:51:16.299Z,35
2022-08-10T14:56:20.789Z,36.4
2022-08-10T15:01:24.391Z,35
2022-08-10T15:06:30.245Z,33.6
2022-08-10T15:12:14.265Z,34.7
2022-08-10T15:16:37.002Z,34.6
2022-08-10T15:21:42.774Z,33.3
2022-08-10T15:26:51.149Z,33.6
2022-08-10T15:31:49.944Z,34.4
2022-08-10T15:37:36.900Z,34.9
2022-08-10T15:42:00.229Z,34.5
2022-08-10T15:47:03.231Z,36.7
2022-08-10T15:52:06.847Z,36.5
2022-08-10T15:57:11.324Z,37.1
2022-08-10T16:02:17.494Z,36.4
2022-08-10T16:07:19.424Z,36.1
2022-08-10T16:12:29.068Z,35.6
2022-08-10T16:17:28.494Z,35.7
2022-08-10T16:22:36.767Z,34.6
2022-08-10T16:27:36.803Z,36.5
2022-08-10T16:32:41.138Z,36.8
2022-08-10T16:37:56.484Z,36.7
2022-08-10T16:42:49.249Z,35.8
2022-08-10T16:47:53.758Z,36.6
2022-08-10T16:52:58.308Z,37.3
2022-08-10T16:58:01.831Z,37.4
2022-08-10T17:03:22.733Z,37.5
2022-08-10T17:08:10.901Z,37.3
2022-08-10T17:13:14.466Z,37.4
2022-08-10T17:18:19.017Z,37.9
2022-08-10T17:23:23.549Z,38
2022-08-10T17:28:34.644Z,38.5
2022-08-10T17:33:31.609Z,38.1
2022-08-10T17:38:35.160Z,38.3
2022-08-10T17:43:46.594Z,38.1
2022-08-10T17:48:44.228Z,38.8
2022-08-10T17:53:47.794Z,39.2
2022-08-10T17:58:52.309Z,39.3
2022-08-10T18:03:56.879Z,39.9
2022-08-10T18:09:00.408Z,40.1
2022-08-10T18:14:04.979Z,40.4
2022-08-10T18:19:09.488Z,40.7
2022-08-10T18:24:16.427Z,41
2022-08-10T18:29:18.757Z,41.5
2022-08-10T18:34:22.088Z,41.6
2022-08-10T18:39:26.706Z,42
2022-08-10T18:44:30.183Z,42.3
2022-08-10T18:49:34.734Z,42.4
2022-08-10T18:54:44.659Z,43.1
2022-08-10T19:00:07.394Z,43.2
2022-08-10T19:04:47.364Z,43
2022-08-10T19:09:51.876Z,43.4
2022-08-10T19:14:55.433Z,43.5
2022-08-10T19:19:59.990Z,43.9
2022-08-10T19:25:04.508Z,43.9
2022-08-10T19:30:12.896Z,44.1
2022-08-10T19:35:12.615Z,44.5
2022-08-10T19:40:17.150Z,45.4
2022-08-10T19:46:01.246Z,46.9
2022-08-10T19:50:25.235Z,48.2
2022-08-10T19:55:29.760Z,48.8
2022-08-10T20:00:34.261Z,49.1
2022-08-10T20:05:37.806Z,49.8
2022-08-10T20:10:42.364Z,49.8
2022-08-10T20:15:46.886Z,50.1
2022-08-10T20:20:50.441Z,50.3
2022-08-10T20:25:54.980Z,50.3
2022-08-10T20:30:59.512Z,50.8
2022-08-10T20:36:03.047Z,51
2022-08-10T20:41:07.587Z,51.3
2022-08-10T20:46:12.117Z,51.5
2022-08-10T20:51:16.959Z,51.9
2022-08-10T20:56:20.209Z,52.4
2022-08-10T21:01:24.863Z,52.8
2022-08-10T21:06:42.119Z,52.8
2022-08-10T21:11:32.835Z,53.2
2022-08-10T21:16:37.409Z,53.3
2022-08-10T21:21:42.312Z,53.1
2022-08-10T21:26:45.610Z,53.6
2022-08-10T21:31:50.424Z,53.2
2022-08-10T21:36:54.493Z,52.4
2022-08-10T21:41:58.898Z,52.4
2022-08-10T21:47:02.694Z,51.9
2022-08-10T21:52:06.139Z,51.8
2022-08-10T21:57:10.647Z,51.8
2022-08-10T22:02:15.240Z,51.6
2022-08-10T22:07:18.738Z,51.5
2022-08-10T22:12:31.400Z,51.9
2022-08-10T22:18:01.225Z,53.7
2022-08-10T22:22:31.425Z,53.9
2022-08-10T22:27:47.413Z,54.2
2022-08-10T22:32:40.426Z,54
2022-08-10T22:37:44.977Z,54.8
2022-08-10T22:42:58.804Z,55.7
2022-08-10T22:47:53.083Z,56.5
2022-08-10T22:53:03.180Z,56.7
2022-08-10T22:58:01.111Z,57.7
2022-08-10T23:03:05.836Z,57.7
2022-08-10T23:08:10.188Z,57.7
2022-08-10T23:13:13.746Z,57.3
2022-08-10T23:18:18.277Z,57.5
2022-08-10T23:23:23.575Z,57.1
2022-08-10T23:28:38.314Z,57.1
2022-08-10T23:33:38.278Z,56.6
2022-08-10T23:38:35.443Z,57
2022-08-10T23:44:02.353Z,57
2022-08-10T23:48:43.630Z,57.6
2022-08-10T23:53:48.050Z,57.6
2022-08-10T23:58:52.577Z,57.7
